Time;durP1;ratioP1;P1;durP2;ratioP2;P2;SDS_P1;SDS_P2;PMS_P1;PMS_P2;Temp;Humidity;BMP_temperature;BMP_pressure;BME280_temperature;BME280_humidity;BME280_pressure;Samples;Min_cycle;Max_cycle;Signal;HPM_P1;HPM_P2
2023/05/22 11:35:05;;;;;;;9.30;4.72;;;;;;;;;;5121517;27;98435;-66
2023/05/22 11:37:32;;;;;;;10.68;4.50;;;;;;;;;;5089413;28;20024;-64
2023/05/22 11:41:03;;;;;;;8.13;4.55;;;;;;;;;;5068801;28;20436;-33
2023/05/22 11:43:35;;;;;;;11.77;5.47;;;;;;;;;;5069204;28;20402;-42
2023/05/22 11:46:08;;;;;;;11.27;4.95;;;;;;;;;;5069079;28;20025;-41
2023/05/22 11:48:35;;;;;;;10.32;4.43;;;;;;;;;;5069065;28;20029;-41
2023/05/22 11:51:01;;;;;;;9.80;4.80;;;;;;;;;;5066858;28;20110;-41
2023/05/22 11:53:29;;;;;;;10.07;4.82;;;;;;;;;;5067624;28;20025;-44
2023/05/22 11:55:55;;;;;;;6.13;4.18;;;;;;;;;;5067504;28;20103;-41
2023/05/22 11:58:30;;;;;;;10.35;4.57;;;;;;;;;;5069935;28;20096;-43
2023/05/22 12:01:00;;;;;;;8.07;5.50;;;;;;;;;;5067527;28;20029;-42
2023/05/22 12:03:26;;;;;;;8.73;4.30;;;;;;;;;;5069417;28;20063;-45
2023/05/22 12:05:52;;;;;;;12.40;4.38;;;;;;;;;;5066102;28;20793;-43
2023/05/22 12:08:18;;;;;;;9.10;4.63;;;;;;;;;;5070429;28;20017;-43
2023/05/22 12:10:48;;;;;;;8.93;4.40;;;;;;;;;;5067103;28;20028;-40
2023/05/22 12:13:14;;;;;;;11.00;4.70;;;;;;;;;;5067196;28;20394;-36
2023/05/22 12:15:40;;;;;;;8.57;4.55;;;;;;;;;;5067685;28;20416;-36
2023/05/22 12:18:10;;;;;;;9.20;4.63;;;;;;;;;;5071283;28;20024;-36
2023/05/22 12:20:40;;;;;;;6.88;4.65;;;;;;;;;;5066731;28;20044;-36
2023/05/22 12:23:10;;;;;;;8.80;4.85;;;;;;;;;;5069837;28;20024;-36
2023/05/22 12:25:36;;;;;;;8.93;4.88;;;;;;;;;;5067014;28;20028;-37
2023/05/22 12:28:02;;;;;;;10.80;5.05;;;;;;;;;;5067041;28;20020;-36
2023/05/22 12:30:38;;;;;;;7.80;4.93;;;;;;;;;;5062871;28;20021;-37
2023/05/22 12:33:04;;;;;;;7.10;4.55;;;;;;;;;;5066985;28;20481;-37
2023/05/22 12:35:30;;;;;;;10.02;4.50;;;;;;;;;;5066725;28;20078;-37
2023/05/22 12:37:57;;;;;;;8.02;4.32;;;;;;;;;;5066607;28;20040;-37
2023/05/22 12:40:23;;;;;;;8.48;4.60;;;;;;;;;;5066578;28;20494;-36
2023/05/22 12:42:49;;;;;;;6.45;4.28;;;;;;;;;;5066649;28;20024;-37
2023/05/22 12:45:16;;;;;;;8.85;4.45;;;;;;;;;;5066622;28;20092;-37
2023/05/22 12:47:42;;;;;;;8.27;4.43;;;;;;;;;;5068212;28;20063;-36
2023/05/22 12:50:08;;;;;;;9.23;4.72;;;;;;;;;;5073045;28;20428;-37
2023/05/22 12:52:35;;;;;;;6.18;4.68;;;;;;;;;;5051690;28;20029;-36
2023/05/22 12:55:00;;;;;;;8.60;4.72;;;;;;;;;;5054483;28;20468;-36
2023/05/22 12:57:26;;;;;;;9.10;4.63;;;;;;;;;;5053073;28;20056;-36
2023/05/22 12:59:52;;;;;;;10.10;5.25;;;;;;;;;;5051792;28;20510;-37
2023/05/22 13:02:18;;;;;;;6.35;4.50;;;;;;;;;;5052963;28;20079;-37
2023/05/22 13:04:44;;;;;;;7.15;3.97;;;;;;;;;;5053600;28;20409;-37
2023/05/22 13:07:10;;;;;;;7.95;4.88;;;;;;;;;;5052859;28;20104;-38
2023/05/22 13:09:36;;;;;;;7.30;4.97;;;;;;;;;;5052837;28;20028;-38
2023/05/22 13:12:02;;;;;;;5.68;4.47;;;;;;;;;;5053045;28;20099;-37
2023/05/22 13:14:28;;;;;;;6.80;4.18;;;;;;;;;;5052986;28;20025;-38
2023/05/22 13:16:54;;;;;;;8.52;4.32;;;;;;;;;;5052722;28;20032;-38
2023/05/22 13:19:20;;;;;;;5.32;4.18;;;;;;;;;;5052916;28;20107;-37
2023/05/22 13:21:46;;;;;;;6.78;4.65;;;;;;;;;;5054481;28;20425;-37
2023/05/22 13:24:12;;;;;;;9.02;4.38;;;;;;;;;;5053725;28;20082;-36
2023/05/22 13:26:38;;;;;;;8.40;4.32;;;;;;;;;;5052447;28;20444;-37
2023/05/22 13:29:04;;;;;;;10.77;4.40;;;;;;;;;;5052610;28;20064;-38
2023/05/22 13:31:34;;;;;;;10.13;4.40;;;;;;;;;;5052419;28;20040;-36
2023/05/22 13:34:00;;;;;;;7.15;4.95;;;;;;;;;;5055566;28;20025;-37
2023/05/22 13:36:26;;;;;;;8.15;4.68;;;;;;;;;;5052215;28;20074;-37
2023/05/22 13:38:52;;;;;;;6.93;4.30;;;;;;;;;;5052301;28;20060;-36
2023/05/22 13:41:18;;;;;;;10.30;4.88;;;;;;;;;;5052250;28;20025;-36
2023/05/22 13:43:44;;;;;;;9.30;4.60;;;;;;;;;;5052230;28;20024;-37
2023/05/22 13:46:10;;;;;;;12.77;4.57;;;;;;;;;;5052108;28;20021;-37
2023/05/22 13:48:36;;;;;;;7.13;4.38;;;;;;;;;;5052137;28;20067;-37
2023/05/22 13:51:02;;;;;;;8.88;4.97;;;;;;;;;;5052102;28;20021;-38
2023/05/22 13:53:28;;;;;;;8.02;4.43;;;;;;;;;;5052030;28;20029;-38
2023/05/22 13:55:54;;;;;;;6.47;4.60;;;;;;;;;;5051995;28;20047;-37
2023/05/22 13:58:20;;;;;;;10.18;4.32;;;;;;;;;;5051926;28;20351;-37
2023/05/22 14:00:46;;;;;;;7.13;4.43;;;;;;;;;;5051788;28;20059;-37
2023/05/22 14:03:16;;;;;;;7.10;4.35;;;;;;;;;;5054340;28;20047;-44
2023/05/22 14:05:42;;;;;;;6.13;4.20;;;;;;;;;;5071748;28;20441;-37
2023/05/22 14:08:08;;;;;;;7.40;4.47;;;;;;;;;;5071396;28;20017;-37
2023/05/22 14:10:34;;;;;;;5.63;4.30;;;;;;;;;;5071587;28;20032;-37
2023/05/22 14:13:00;;;;;;;10.15;4.28;;;;;;;;;;5072815;28;20082;-36
2023/05/22 14:15:26;;;;;;;10.93;5.25;;;;;;;;;;5072544;28;20405;-37
2023/05/22 14:17:52;;;;;;;10.07;4.82;;;;;;;;;;5054030;28;20033;-38
2023/05/22 14:20:18;;;;;;;7.07;4.63;;;;;;;;;;5051719;28;20151;-37
2023/05/22 14:22:44;;;;;;;8.57;4.63;;;;;;;;;;5050313;28;20033;-37
2023/05/22 14:25:10;;;;;;;6.05;4.40;;;;;;;;;;5051520;28;20079;-37
2023/05/22 14:27:36;;;;;;;6.25;4.22;;;;;;;;;;5051586;28;20021;-36
2023/05/22 14:30:02;;;;;;;7.38;4.43;;;;;;;;;;5051259;28;20024;-36
2023/05/22 14:32:28;;;;;;;8.40;4.45;;;;;;;;;;5052091;28;20029;-37
2023/05/22 14:34:54;;;;;;;8.63;4.45;;;;;;;;;;5052266;28;20052;-36
2023/05/22 14:37:20;;;;;;;7.70;4.32;;;;;;;;;;5046040;28;20025;-36
2023/05/22 14:39:46;;;;;;;5.72;4.57;;;;;;;;;;5051519;28;20127;-37
2023/05/22 14:42:12;;;;;;;7.80;4.90;;;;;;;;;;5047356;28;20022;-37
2023/05/22 14:44:38;;;;;;;7.03;4.65;;;;;;;;;;5051123;28;20482;-36
2023/05/22 14:47:05;;;;;;;7.07;4.95;;;;;;;;;;5050705;28;20021;-36
2023/05/22 14:49:31;;;;;;;8.82;4.72;;;;;;;;;;5050816;28;20031;-37
2023/05/22 14:51:57;;;;;;;6.43;4.35;;;;;;;;;;5049647;28;20053;-37
2023/05/22 14:54:23;;;;;;;6.05;4.28;;;;;;;;;;5052032;28;20068;-37
2023/05/22 14:56:49;;;;;;;9.38;4.70;;;;;;;;;;5050807;28;20024;-37
2023/05/22 14:59:15;;;;;;;9.30;4.55;;;;;;;;;;5050800;28;20028;-38
2023/05/22 15:01:41;;;;;;;8.25;4.70;;;;;;;;;;5050396;28;20028;-37
2023/05/22 15:04:07;;;;;;;7.97;4.43;;;;;;;;;;5051085;28;20028;-37
2023/05/22 15:06:33;;;;;;;7.00;4.20;;;;;;;;;;5050223;28;20462;-37
2023/05/22 15:08:59;;;;;;;6.75;3.92;;;;;;;;;;5049604;28;20124;-37
2023/05/22 15:11:26;;;;;;;8.68;4.00;;;;;;;;;;5051551;28;20032;-37
2023/05/22 15:13:53;;;;;;;13.55;4.32;;;;;;;;;;5050313;28;20471;-37
2023/05/22 15:16:19;;;;;;;6.47;3.78;;;;;;;;;;5063415;28;20021;-37
2023/05/22 15:18:45;;;;;;;7.63;4.22;;;;;;;;;;5071774;28;20030;-37
2023/05/22 15:21:11;;;;;;;4.68;3.70;;;;;;;;;;5072152;28;20107;-36
2023/05/22 15:23:37;;;;;;;10.70;4.07;;;;;;;;;;5071928;28;20030;-37
2023/05/22 15:26:03;;;;;;;11.68;4.50;;;;;;;;;;5070350;28;20024;-37
2023/05/22 15:28:29;;;;;;;6.10;4.60;;;;;;;;;;5071541;28;20108;-37
2023/05/22 15:30:55;;;;;;;6.35;3.95;;;;;;;;;;5071490;28;20532;-37
2023/05/22 15:33:21;;;;;;;10.30;5.07;;;;;;;;;;5070259;28;20032;-37
2023/05/22 15:35:47;;;;;;;7.38;4.75;;;;;;;;;;5071608;28;20028;-36
2023/05/22 15:38:14;;;;;;;12.32;4.95;;;;;;;;;;5071608;28;20061;-37
2023/05/22 15:40:40;;;;;;;7.28;4.53;;;;;;;;;;5071081;28;20044;-36
2023/05/22 15:43:06;;;;;;;15.65;6.47;;;;;;;;;;5071530;28;20025;-37
2023/05/22 15:45:33;;;;;;;11.90;6.05;;;;;;;;;;5071687;28;20078;-36
2023/05/22 15:47:59;;;;;;;9.52;5.63;;;;;;;;;;5071525;28;20411;-37
2023/05/22 15:50:25;;;;;;;7.22;5.88;;;;;;;;;;5071487;28;20069;-37
2023/05/22 15:52:51;;;;;;;7.95;6.50;;;;;;;;;;5071313;28;20028;-37
2023/05/22 15:55:17;;;;;;;8.82;5.93;;;;;;;;;;5071363;28;20032;-37
2023/05/22 15:57:43;;;;;;;13.32;7.38;;;;;;;;;;5071570;28;20020;-37
2023/05/22 16:00:09;;;;;;;12.60;7.65;;;;;;;;;;5071354;28;20032;-36
2023/05/22 16:02:35;;;;;;;14.57;7.93;;;;;;;;;;5069911;28;20029;-37
2023/05/22 16:05:01;;;;;;;15.48;8.13;;;;;;;;;;5071292;28;20539;-37
2023/05/22 16:07:27;;;;;;;14.38;7.63;;;;;;;;;;5071301;28;20025;-38
2023/05/22 16:09:53;;;;;;;15.52;9.05;;;;;;;;;;5071191;28;20032;-37
2023/05/22 16:12:19;;;;;;;13.50;8.18;;;;;;;;;;5069911;28;20423;-37
2023/05/22 16:14:45;;;;;;;13.52;8.20;;;;;;;;;;5071047;28;20389;-38
2023/05/22 16:17:11;;;;;;;13.90;8.13;;;;;;;;;;5071230;28;20389;-37
2023/05/22 16:19:37;;;;;;;13.85;8.00;;;;;;;;;;5071271;28;20040;-37
2023/05/22 16:22:03;;;;;;;14.40;8.80;;;;;;;;;;5071087;28;20079;-38
2023/05/22 16:24:29;;;;;;;15.63;8.68;;;;;;;;;;5069918;28;20074;-37
2023/05/22 16:26:56;;;;;;;16.08;9.57;;;;;;;;;;5073168;28;20028;-37
2023/05/22 16:29:22;;;;;;;17.17;9.10;;;;;;;;;;5067740;28;20081;-37
2023/05/22 16:31:48;;;;;;;14.98;8.95;;;;;;;;;;5054705;28;20104;-37
2023/05/22 16:34:14;;;;;;;16.17;10.00;;;;;;;;;;5054632;28;20036;-36
2023/05/22 16:36:40;;;;;;;15.75;9.57;;;;;;;;;;5054883;28;20021;-37
2023/05/22 16:39:08;;;;;;;18.15;9.10;;;;;;;;;;5054609;28;20053;-37
2023/05/22 16:41:36;;;;;;;15.90;9.50;;;;;;;;;;5054125;28;20029;-37
2023/05/22 16:44:02;;;;;;;15.48;8.90;;;;;;;;;;5054682;28;20021;-37
2023/05/22 16:46:28;;;;;;;15.60;9.80;;;;;;;;;;5054266;28;20021;-39
2023/05/22 16:48:54;;;;;;;14.20;10.43;;;;;;;;;;5054846;28;20080;-38
2023/05/22 16:51:20;;;;;;;15.55;9.30;;;;;;;;;;5054173;28;20079;-37
2023/05/22 16:53:46;;;;;;;13.15;9.77;;;;;;;;;;5054136;28;20037;-37
2023/05/22 16:56:13;;;;;;;15.82;9.38;;;;;;;;;;5054281;28;20021;-38
2023/05/22 16:58:39;;;;;;;15.57;10.25;;;;;;;;;;5054058;28;20101;-37
2023/05/22 17:01:05;;;;;;;15.10;9.30;;;;;;;;;;5054242;28;20037;-37
2023/05/22 17:03:32;;;;;;;15.98;9.88;;;;;;;;;;5054586;28;20044;-37
2023/05/22 17:05:58;;;;;;;14.95;9.25;;;;;;;;;;5054018;28;20035;-38
2023/05/22 17:08:27;;;;;;;14.25;9.38;;;;;;;;;;5053014;28;20029;-36
2023/05/22 17:10:53;;;;;;;13.18;9.80;;;;;;;;;;5053552;28;20150;-39
2023/05/22 17:13:19;;;;;;;18.70;10.38;;;;;;;;;;5052911;28;20037;-36
2023/05/22 17:15:49;;;;;;;16.23;11.25;;;;;;;;;;5054081;28;20469;-37
2023/05/22 17:18:21;;;;;;;14.82;11.02;;;;;;;;;;5053544;28;20416;-36
2023/05/22 17:20:48;;;;;;;21.10;11.23;;;;;;;;;;5053416;28;20035;-37
2023/05/22 17:23:14;;;;;;;18.08;10.73;;;;;;;;;;5054079;28;20083;-36
2023/05/22 17:25:40;;;;;;;14.90;10.40;;;;;;;;;;5053666;28;20039;-38
2023/05/22 17:28:07;;;;;;;14.63;10.57;;;;;;;;;;5053433;28;20028;-37
2023/05/22 17:30:33;;;;;;;15.40;10.48;;;;;;;;;;5053611;28;20025;-37
2023/05/22 17:32:59;;;;;;;15.27;10.50;;;;;;;;;;5054070;28;20067;-38
2023/05/22 17:35:25;;;;;;;16.23;10.65;;;;;;;;;;5053419;28;20466;-37
2023/05/22 17:37:51;;;;;;;19.13;10.70;;;;;;;;;;5053521;28;20039;-37
2023/05/22 17:40:17;;;;;;;14.00;9.65;;;;;;;;;;5053079;28;20110;-38
2023/05/22 17:42:43;;;;;;;13.80;8.70;;;;;;;;;;5052961;28;20028;-36
2023/05/22 17:45:09;;;;;;;12.15;8.18;;;;;;;;;;5053394;28;20032;-36
2023/05/22 17:47:35;;;;;;;12.45;8.65;;;;;;;;;;5052999;28;20024;-37
2023/05/22 17:50:01;;;;;;;13.57;8.32;;;;;;;;;;5053148;28;20025;-36
2023/05/22 17:52:27;;;;;;;13.98;8.75;;;;;;;;;;5053300;28;20033;-37
2023/05/22 17:54:54;;;;;;;12.82;7.97;;;;;;;;;;5053234;28;20033;-37
2023/05/22 17:57:20;;;;;;;16.25;8.50;;;;;;;;;;5053214;28;20048;-37
2023/05/22 17:59:46;;;;;;;9.18;8.23;;;;;;;;;;5053181;28;20072;-38
2023/05/22 18:02:12;;;;;;;12.20;8.75;;;;;;;;;;5053118;28;20461;-37
2023/05/22 18:04:38;;;;;;;11.65;7.80;;;;;;;;;;5053168;28;20103;-38
2023/05/22 18:07:04;;;;;;;14.02;9.13;;;;;;;;;;5053551;28;20247;-38
2023/05/22 18:09:31;;;;;;;11.85;7.80;;;;;;;;;;5053366;28;20497;-37
2023/05/22 18:11:59;;;;;;;10.93;7.93;;;;;;;;;;5053150;28;20028;-37
2023/05/22 18:14:25;;;;;;;14.20;8.55;;;;;;;;;;5053387;28;20441;-36
2023/05/22 18:16:51;;;;;;;12.80;9.38;;;;;;;;;;5052981;28;20436;-37
2023/05/22 18:19:17;;;;;;;13.40;9.57;;;;;;;;;;5052680;28;20029;-36
2023/05/22 18:21:43;;;;;;;13.45;8.73;;;;;;;;;;5051539;28;20017;-36
2023/05/22 18:24:09;;;;;;;15.38;9.55;;;;;;;;;;5052607;28;20021;-36
2023/05/22 18:26:35;;;;;;;15.32;9.93;;;;;;;;;;5052666;28;20025;-37
2023/05/22 18:29:01;;;;;;;13.45;9.02;;;;;;;;;;5052519;28;20028;-37
2023/05/22 18:31:27;;;;;;;12.68;9.52;;;;;;;;;;5052524;28;20016;-37
2023/05/22 18:33:53;;;;;;;14.88;9.10;;;;;;;;;;5052531;28;20032;-37
2023/05/22 18:36:19;;;;;;;14.07;8.43;;;;;;;;;;5052524;28;20021;-37
2023/05/22 18:38:45;;;;;;;11.00;8.63;;;;;;;;;;5052064;28;20466;-37
2023/05/22 18:41:11;;;;;;;9.98;8.20;;;;;;;;;;5052179;28;20028;-37
2023/05/22 18:43:37;;;;;;;13.48;9.13;;;;;;;;;;5052318;28;20078;-37
2023/05/22 18:46:03;;;;;;;12.75;8.88;;;;;;;;;;5052320;28;20063;-37
2023/05/22 18:48:29;;;;;;;12.10;8.93;;;;;;;;;;5051776;28;20462;-37
2023/05/22 18:50:56;;;;;;;15.25;9.25;;;;;;;;;;5051870;28;20417;-37
2023/05/22 18:53:24;;;;;;;10.60;8.25;;;;;;;;;;5052348;28;20021;-37
2023/05/22 18:55:50;;;;;;;10.43;8.63;;;;;;;;;;5052108;28;20109;-37
2023/05/22 18:58:16;;;;;;;10.60;7.65;;;;;;;;;;5052086;28;20033;-37
2023/05/22 19:00:43;;;;;;;14.25;8.50;;;;;;;;;;5051750;28;20432;-37
2023/05/22 19:03:10;;;;;;;11.27;8.90;;;;;;;;;;5050994;28;20028;-36
2023/05/22 19:05:36;;;;;;;10.20;8.85;;;;;;;;;;5051882;28;20021;-37
2023/05/22 19:08:03;;;;;;;12.75;8.60;;;;;;;;;;5052144;28;20021;-38
2023/05/22 19:10:29;;;;;;;12.43;9.07;;;;;;;;;;5051935;28;20025;-37
2023/05/22 19:12:55;;;;;;;9.38;8.15;;;;;;;;;;5051849;28;20032;-37
2023/05/22 19:15:21;;;;;;;13.95;9.35;;;;;;;;;;5051788;28;20025;-37
2023/05/22 19:17:47;;;;;;;10.20;8.18;;;;;;;;;;5048273;28;20083;-36
2023/05/22 19:20:13;;;;;;;13.25;8.30;;;;;;;;;;5050261;28;20119;-37
2023/05/22 19:22:40;;;;;;;10.38;7.90;;;;;;;;;;5050248;28;20104;-37
2023/05/22 19:25:06;;;;;;;10.73;8.48;;;;;;;;;;5050506;28;20044;-37
2023/05/22 19:27:32;;;;;;;10.40;8.20;;;;;;;;;;5056173;28;20107;-37
2023/05/22 19:29:58;;;;;;;9.93;8.20;;;;;;;;;;5049590;28;20506;-37
2023/05/22 19:32:24;;;;;;;9.75;8.35;;;;;;;;;;5050644;28;21437;-38
2023/05/22 19:34:50;;;;;;;11.05;8.32;;;;;;;;;;5050548;28;20031;-36
2023/05/22 19:37:16;;;;;;;12.70;8.23;;;;;;;;;;5050674;28;20025;-37
2023/05/22 19:39:42;;;;;;;10.05;7.90;;;;;;;;;;5053413;28;20041;-37
2023/05/22 19:42:09;;;;;;;13.82;8.15;;;;;;;;;;5050775;28;20021;-36
2023/05/22 19:44:35;;;;;;;10.23;8.15;;;;;;;;;;5050534;28;20032;-37
2023/05/22 19:47:01;;;;;;;9.68;7.80;;;;;;;;;;5050733;28;20123;-36
2023/05/22 19:49:30;;;;;;;9.73;7.88;;;;;;;;;;5050744;28;20529;-37
2023/05/22 19:51:58;;;;;;;10.60;7.40;;;;;;;;;;5050346;28;20025;-38
2023/05/22 19:54:24;;;;;;;12.32;7.97;;;;;;;;;;5050349;28;20017;-37
2023/05/22 19:56:50;;;;;;;11.15;8.15;;;;;;;;;;5050599;28;20029;-37
2023/05/22 19:59:16;;;;;;;9.68;7.85;;;;;;;;;;5049049;28;20040;-37
2023/05/22 20:01:42;;;;;;;9.88;7.90;;;;;;;;;;5052421;28;20045;-37
2023/05/22 20:04:08;;;;;;;10.20;8.18;;;;;;;;;;5054274;28;20114;-37
2023/05/22 20:06:34;;;;;;;10.80;8.15;;;;;;;;;;5053237;28;20025;-37
2023/05/22 20:09:00;;;;;;;11.18;8.30;;;;;;;;;;5054258;28;20381;-37
2023/05/22 20:11:27;;;;;;;13.98;9.05;;;;;;;;;;5054166;28;20025;-37
2023/05/22 20:13:54;;;;;;;12.93;9.57;;;;;;;;;;5054464;28;20017;-37
2023/05/22 20:16:20;;;;;;;13.45;9.57;;;;;;;;;;5053896;28;20032;-37
2023/05/22 20:18:47;;;;;;;11.40;8.95;;;;;;;;;;5054080;28;20027;-37
2023/05/22 20:21:13;;;;;;;11.88;9.70;;;;;;;;;;5052880;28;20029;-37
2023/05/22 20:23:39;;;;;;;12.68;8.65;;;;;;;;;;5054463;28;20078;-36
2023/05/22 20:26:05;;;;;;;12.38;8.90;;;;;;;;;;5053641;28;20025;-37
2023/05/22 20:28:31;;;;;;;15.98;9.77;;;;;;;;;;5053918;28;20100;-37
2023/05/22 20:30:57;;;;;;;14.18;10.32;;;;;;;;;;5053943;28;20541;-42
2023/05/22 20:33:23;;;;;;;16.33;9.02;;;;;;;;;;5052703;28;20082;-38
2023/05/22 20:35:51;;;;;;;14.27;9.13;;;;;;;;;;5053598;28;20027;-37
2023/05/22 20:38:17;;;;;;;14.45;10.00;;;;;;;;;;5053681;28;20021;-37
2023/05/22 20:40:46;;;;;;;11.63;9.50;;;;;;;;;;5053417;28;20037;-36
2023/05/22 20:43:17;;;;;;;13.65;9.80;;;;;;;;;;5053356;28;20462;-36
2023/05/22 20:45:44;;;;;;;18.08;10.40;;;;;;;;;;5053482;28;20493;-37
2023/05/22 20:48:12;;;;;;;17.80;9.95;;;;;;;;;;5053531;28;20029;-40
2023/05/22 20:50:39;;;;;;;16.83;9.82;;;;;;;;;;5053405;28;20035;-36
2023/05/22 20:53:08;;;;;;;11.45;9.57;;;;;;;;;;5053473;28;20025;-37
2023/05/22 20:55:34;;;;;;;12.77;9.57;;;;;;;;;;5053102;28;20024;-39
2023/05/22 20:58:00;;;;;;;14.30;9.82;;;;;;;;;;5053248;28;20091;-36
2023/05/22 21:00:27;;;;;;;10.35;8.68;;;;;;;;;;5055222;28;20108;-37
2023/05/22 21:02:53;;;;;;;9.57;8.23;;;;;;;;;;5054424;28;20025;-37
2023/05/22 21:05:19;;;;;;;12.23;8.57;;;;;;;;;;5054277;28;20025;-37
2023/05/22 21:07:45;;;;;;;11.30;8.10;;;;;;;;;;5049261;28;20025;-36
2023/05/22 21:10:11;;;;;;;12.38;9.95;;;;;;;;;;5054846;28;20074;-36
2023/05/22 21:12:37;;;;;;;11.40;8.90;;;;;;;;;;5067568;28;20043;-37
2023/05/22 21:15:03;;;;;;;11.80;9.40;;;;;;;;;;5070427;28;20040;-36
2023/05/22 21:17:29;;;;;;;12.48;9.95;;;;;;;;;;5057748;28;20335;-36
2023/05/22 21:19:55;;;;;;;13.30;9.18;;;;;;;;;;5064566;28;20032;-36
2023/05/22 21:22:21;;;;;;;12.68;9.63;;;;;;;;;;5059777;28;20525;-37
2023/05/22 21:24:47;;;;;;;13.77;10.00;;;;;;;;;;5070243;28;20028;-37
2023/05/22 21:27:13;;;;;;;13.55;8.93;;;;;;;;;;5068881;28;20024;-37
2023/05/22 21:29:39;;;;;;;11.00;9.23;;;;;;;;;;5062308;28;20029;-37
2023/05/22 21:32:05;;;;;;;13.30;9.05;;;;;;;;;;5060682;28;20500;-37
2023/05/22 21:34:31;;;;;;;13.77;9.70;;;;;;;;;;5068141;28;20428;-36
2023/05/22 21:36:57;;;;;;;12.52;9.35;;;;;;;;;;5056904;28;20035;-37
2023/05/22 21:39:23;;;;;;;11.88;10.10;;;;;;;;;;5067219;28;20079;-37
2023/05/22 21:41:49;;;;;;;12.00;9.43;;;;;;;;;;5063298;28;20450;-36
2023/05/22 21:44:15;;;;;;;13.45;9.43;;;;;;;;;;5060566;28;20079;-37
2023/05/22 21:46:41;;;;;;;11.52;9.73;;;;;;;;;;5070115;28;20071;-36
2023/05/22 21:49:08;;;;;;;12.20;10.13;;;;;;;;;;5057408;28;20055;-37
2023/05/22 21:51:34;;;;;;;12.80;10.15;;;;;;;;;;5065611;28;20086;-36
2023/05/22 21:54:00;;;;;;;13.73;10.50;;;;;;;;;;5058779;28;20358;-36
2023/05/22 21:56:26;;;;;;;13.18;10.43;;;;;;;;;;5066963;28;20029;-36
2023/05/22 21:58:52;;;;;;;15.30;10.93;;;;;;;;;;5056620;28;20021;-37
2023/05/22 22:01:18;;;;;;;13.90;10.63;;;;;;;;;;5067672;28;20047;-37
2023/05/22 22:03:44;;;;;;;11.88;9.98;;;;;;;;;;5060361;28;20021;-38
2023/05/22 22:06:10;;;;;;;14.27;11.50;;;;;;;;;;5065874;28;20095;-37
2023/05/22 22:08:36;;;;;;;11.93;10.70;;;;;;;;;;5056783;28;20108;-39
2023/05/22 22:11:02;;;;;;;15.00;10.50;;;;;;;;;;5069885;28;20021;-37
2023/05/22 22:13:28;;;;;;;13.48;11.02;;;;;;;;;;5052240;28;20033;-37
2023/05/22 22:15:54;;;;;;;13.35;11.70;;;;;;;;;;5053012;28;20025;-37
2023/05/22 22:18:20;;;;;;;14.98;12.15;;;;;;;;;;5053220;28;20029;-37
2023/05/22 22:20:52;;;;;;;14.52;11.40;;;;;;;;;;5051881;28;20132;-37
2023/05/22 22:23:23;;;;;;;18.77;12.13;;;;;;;;;;5052234;28;20070;-37
2023/05/22 22:25:49;;;;;;;12.98;10.88;;;;;;;;;;5052617;28;20025;-37
2023/05/22 22:28:15;;;;;;;14.77;10.07;;;;;;;;;;5052594;28;20140;-37
2023/05/22 22:30:41;;;;;;;14.95;11.20;;;;;;;;;;5051315;28;20029;-37
2023/05/22 22:33:07;;;;;;;13.43;10.88;;;;;;;;;;5052548;28;20085;-36
2023/05/22 22:35:33;;;;;;;16.65;11.38;;;;;;;;;;5052760;28;20047;-36
2023/05/22 22:37:59;;;;;;;14.57;11.27;;;;;;;;;;5051180;28;20111;-36
2023/05/22 22:40:25;;;;;;;17.83;11.60;;;;;;;;;;5050919;28;20179;-36
2023/05/22 22:42:51;;;;;;;12.10;10.80;;;;;;;;;;5052385;28;20025;-37
2023/05/22 22:45:17;;;;;;;18.45;11.38;;;;;;;;;;5050969;28;20024;-35
2023/05/22 22:47:43;;;;;;;12.75;9.95;;;;;;;;;;5051067;28;20040;-36
2023/05/22 22:50:09;;;;;;;13.70;10.65;;;;;;;;;;5052166;28;20029;-36
2023/05/22 22:52:36;;;;;;;13.30;10.15;;;;;;;;;;5051094;28;20028;-36
2023/05/22 22:55:02;;;;;;;13.45;9.98;;;;;;;;;;5052197;28;20021;-36
2023/05/22 22:57:28;;;;;;;15.65;11.00;;;;;;;;;;5052155;28;20443;-37
2023/05/22 22:59:54;;;;;;;14.80;11.95;;;;;;;;;;5050918;28;20033;-36
2023/05/22 23:02:20;;;;;;;15.85;11.25;;;;;;;;;;5052070;28;20059;-37
2023/05/22 23:04:46;;;;;;;13.60;10.70;;;;;;;;;;5051940;28;20115;-37
2023/05/22 23:07:15;;;;;;;11.45;9.73;;;;;;;;;;5052337;28;20079;-36
2023/05/22 23:09:41;;;;;;;14.15;10.57;;;;;;;;;;5051850;28;20048;-36
2023/05/22 23:12:07;;;;;;;12.65;9.43;;;;;;;;;;5051961;28;20060;-36
2023/05/22 23:14:36;;;;;;;15.05;11.13;;;;;;;;;;5051923;28;20029;-37
2023/05/22 23:17:02;;;;;;;12.45;10.55;;;;;;;;;;5051798;28;20343;-37
2023/05/22 23:19:28;;;;;;;13.38;10.00;;;;;;;;;;5051731;28;20032;-37
2023/05/22 23:21:54;;;;;;;17.23;10.65;;;;;;;;;;5051912;28;20477;-37
2023/05/22 23:24:20;;;;;;;14.80;10.40;;;;;;;;;;5051879;28;20361;-35
2023/05/22 23:26:46;;;;;;;17.33;11.98;;;;;;;;;;5051823;28;20295;-36
2023/05/22 23:29:12;;;;;;;12.10;10.60;;;;;;;;;;5051661;28;20098;-36
2023/05/22 23:31:39;;;;;;;12.35;10.77;;;;;;;;;;5051452;28;20055;-36
2023/05/22 23:34:05;;;;;;;14.40;11.15;;;;;;;;;;5051596;28;20489;-36
2023/05/22 23:36:31;;;;;;;12.90;10.25;;;;;;;;;;5051474;28;20028;-36
2023/05/22 23:38:57;;;;;;;13.82;11.38;;;;;;;;;;5050920;28;20079;-36
2023/05/22 23:41:23;;;;;;;13.90;11.00;;;;;;;;;;5051638;28;20021;-36
2023/05/22 23:43:49;;;;;;;14.57;10.93;;;;;;;;;;5051386;28;20028;-36
2023/05/22 23:46:15;;;;;;;13.68;9.73;;;;;;;;;;5051566;28;20052;-36
2023/05/22 23:48:41;;;;;;;16.52;11.02;;;;;;;;;;5050397;28;20082;-37
2023/05/22 23:51:08;;;;;;;14.68;10.85;;;;;;;;;;5051690;28;20489;-37
2023/05/22 23:53:35;;;;;;;11.90;9.77;;;;;;;;;;5051411;28;20025;-34
2023/05/22 23:56:00;;;;;;;13.07;10.43;;;;;;;;;;5065090;28;20025;-35
2023/05/22 23:58:28;;;;;;;13.20;10.70;;;;;;;;;;5056037;28;20032;-36
